sensor_id;sensor_type;location;lat;lon;timestamp;temperature;humidity
74934;DHT22;63499;53.232;7.492;2023-04-26T06:44:52;7.10;99.90
74934;DHT22;63499;53.232;7.492;2023-04-26T06:47:18;7.30;99.90
74934;DHT22;63499;53.232;7.492;2023-04-26T06:49:44;7.30;99.90
74934;DHT22;63499;53.232;7.492;2023-04-26T06:52:10;7.40;99.90
74934;DHT22;63499;53.232;7.492;2023-04-26T06:54:37;7.50;99.90
74934;DHT22;63499;53.232;7.492;2023-04-26T06:57:03;7.70;99.90
74934;DHT22;63499;53.232;7.492;2023-04-26T06:59:29;7.80;99.90
74934;DHT22;63499;53.232;7.492;2023-04-26T07:01:55;7.80;99.90
74934;DHT22;63499;53.232;7.492;2023-04-26T07:04:21;7.80;99.90
74934;DHT22;63499;53.232;7.492;2023-04-26T07:06:47;8.00;99.90
74934;DHT22;63499;53.232;7.492;2023-04-26T07:09:14;8.10;99.90
74934;DHT22;63499;53.232;7.492;2023-04-26T07:11:40;8.20;99.90
74934;DHT22;63499;53.232;7.492;2023-04-26T07:14:06;8.30;99.90
74934;DHT22;63499;53.232;7.492;2023-04-26T07:16:35;8.20;99.90
74934;DHT22;63499;53.232;7.492;2023-04-26T07:19:01;8.30;99.90
74934;DHT22;63499;53.232;7.492;2023-04-26T07:21:28;8.30;99.90
74934;DHT22;63499;53.232;7.492;2023-04-26T07:23:57;8.40;99.90
74934;DHT22;63499;53.232;7.492;2023-04-26T07:26:24;8.30;99.90
74934;DHT22;63499;53.232;7.492;2023-04-26T07:28:54;8.40;99.90
74934;DHT22;63499;53.232;7.492;2023-04-26T07:31:21;8.40;99.90
74934;DHT22;63499;53.232;7.492;2023-04-26T07:33:47;8.60;99.90
74934;DHT22;63499;53.232;7.492;2023-04-26T07:36:13;8.60;99.90
74934;DHT22;63499;53.232;7.492;2023-04-26T07:38:39;8.40;99.90
74934;DHT22;63499;53.232;7.492;2023-04-26T07:41:06;8.10;99.90
74934;DHT22;63499;53.232;7.492;2023-04-26T07:43:32;7.80;99.90
74934;DHT22;63499;53.232;7.492;2023-04-26T07:46:02;7.60;99.90
74934;DHT22;63499;53.232;7.492;2023-04-26T07:48:28;7.90;99.90
74934;DHT22;63499;53.232;7.492;2023-04-26T07:50:54;8.00;99.90
74934;DHT22;63499;53.232;7.492;2023-04-26T07:53:21;8.20;99.90
74934;DHT22;63499;53.232;7.492;2023-04-26T08:00:44;7.70;99.90
74934;DHT22;63499;53.232;7.492;2023-04-26T08:03:14;7.70;99.90
74934;DHT22;63499;53.232;7.492;2023-04-26T08:05:41;7.70;99.90
74934;DHT22;63499;53.232;7.492;2023-04-26T08:08:07;7.50;99.90
74934;DHT22;63499;53.232;7.492;2023-04-26T08:10:33;7.30;99.90
74934;DHT22;63499;53.232;7.492;2023-04-26T08:12:59;7.10;99.90
74934;DHT22;63499;53.232;7.492;2023-04-26T08:15:28;7.00;99.90
74934;DHT22;63499;53.232;7.492;2023-04-26T08:17:54;6.90;99.90
74934;DHT22;63499;53.232;7.492;2023-04-26T08:20:20;7.00;99.90
74934;DHT22;63499;53.232;7.492;2023-04-26T08:22:47;7.00;99.90
74934;DHT22;63499;53.232;7.492;2023-04-26T08:25:14;7.10;99.90
74934;DHT22;63499;53.232;7.492;2023-04-26T08:27:40;7.20;99.90
74934;DHT22;63499;53.232;7.492;2023-04-26T08:30:07;7.40;99.90
74934;DHT22;63499;53.232;7.492;2023-04-26T08:32:33;7.40;99.90
74934;DHT22;63499;53.232;7.492;2023-04-26T08:35:00;7.50;99.90
74934;DHT22;63499;53.232;7.492;2023-04-26T08:37:26;7.80;99.90
74934;DHT22;63499;53.232;7.492;2023-04-26T08:39:52;8.10;99.90
74934;DHT22;63499;53.232;7.492;2023-04-26T08:42:19;8.20;99.90
74934;DHT22;63499;53.232;7.492;2023-04-26T08:44:45;8.10;99.90
74934;DHT22;63499;53.232;7.492;2023-04-26T08:47:15;8.20;99.90
74934;DHT22;63499;53.232;7.492;2023-04-26T08:49:43;8.10;99.90
74934;DHT22;63499;53.232;7.492;2023-04-26T08:52:10;8.00;99.90
74934;DHT22;63499;53.232;7.492;2023-04-26T08:54:36;7.90;99.90
74934;DHT22;63499;53.232;7.492;2023-04-26T08:57:03;7.80;99.90
74934;DHT22;63499;53.232;7.492;2023-04-26T08:59:30;7.80;99.90
74934;DHT22;63499;53.232;7.492;2023-04-26T09:01:56;7.60;99.90
74934;DHT22;63499;53.232;7.492;2023-04-26T09:04:23;7.70;99.90
74934;DHT22;63499;53.232;7.492;2023-04-26T09:06:49;7.50;99.90
74934;DHT22;63499;53.232;7.492;2023-04-26T09:09:17;7.50;99.90
74934;DHT22;63499;53.232;7.492;2023-04-26T09:11:54;7.30;99.90
74934;DHT22;63499;53.232;7.492;2023-04-26T09:14:20;7.30;99.90
74934;DHT22;63499;53.232;7.492;2023-04-26T09:16:46;7.20;99.90
74934;DHT22;63499;53.232;7.492;2023-04-26T09:19:13;7.10;99.90
74934;DHT22;63499;53.232;7.492;2023-04-26T09:21:42;7.30;99.90
74934;DHT22;63499;53.232;7.492;2023-04-26T09:24:12;7.30;99.90
74934;DHT22;63499;53.232;7.492;2023-04-26T09:26:38;7.40;99.90
74934;DHT22;63499;53.232;7.492;2023-04-26T09:29:13;7.60;99.90
74934;DHT22;63499;53.232;7.492;2023-04-26T09:31:41;7.60;99.90
74934;DHT22;63499;53.232;7.492;2023-04-26T09:34:08;7.80;99.90
74934;DHT22;63499;53.232;7.492;2023-04-26T09:39:13;8.20;99.90
74934;DHT22;63499;53.232;7.492;2023-04-26T09:41:43;8.30;99.90
74934;DHT22;63499;53.232;7.492;2023-04-26T09:44:21;8.40;99.90
74934;DHT22;63499;53.232;7.492;2023-04-26T09:47:01;8.50;99.90
74934;DHT22;63499;53.232;7.492;2023-04-26T09:49:32;8.40;99.90
74934;DHT22;63499;53.232;7.492;2023-04-26T09:51:59;8.50;99.90
74934;DHT22;63499;53.232;7.492;2023-04-26T09:54:36;8.90;99.90
74934;DHT22;63499;53.232;7.492;2023-04-26T09:57:02;9.30;99.90
74934;DHT22;63499;53.232;7.492;2023-04-26T09:59:49;9.70;99.90
74934;DHT22;63499;53.232;7.492;2023-04-26T10:02:20;9.90;99.90
74934;DHT22;63499;53.232;7.492;2023-04-26T10:04:48;9.80;99.90
74934;DHT22;63499;53.232;7.492;2023-04-26T10:07:16;9.80;99.90
74934;DHT22;63499;53.232;7.492;2023-04-26T10:09:43;9.90;99.90
74934;DHT22;63499;53.232;7.492;2023-04-26T10:12:12;9.90;99.90
74934;DHT22;63499;53.232;7.492;2023-04-26T10:14:38;9.80;99.90
74934;DHT22;63499;53.232;7.492;2023-04-26T10:17:05;9.70;99.90
74934;DHT22;63499;53.232;7.492;2023-04-26T10:19:32;9.70;99.90
74934;DHT22;63499;53.232;7.492;2023-04-26T10:21:59;9.60;99.90
74934;DHT22;63499;53.232;7.492;2023-04-26T10:24:26;9.50;99.90
74934;DHT22;63499;53.232;7.492;2023-04-26T10:26:53;9.40;99.90
74934;DHT22;63499;53.232;7.492;2023-04-26T10:29:25;9.40;99.90
74934;DHT22;63499;53.232;7.492;2023-04-26T10:34:31;9.70;99.90
74934;DHT22;63499;53.232;7.492;2023-04-26T10:39:33;9.90;99.90
74934;DHT22;63499;53.232;7.492;2023-04-26T10:44:48;9.90;99.90
74934;DHT22;63499;53.232;7.492;2023-04-26T10:47:33;9.90;99.90
74934;DHT22;63499;53.232;7.492;2023-04-26T10:50:02;10.00;99.90
74934;DHT22;63499;53.232;7.492;2023-04-26T10:52:29;10.20;99.90
74934;DHT22;63499;53.232;7.492;2023-04-26T10:54:56;10.10;99.90
74934;DHT22;63499;53.232;7.492;2023-04-26T10:57:23;10.10;99.90
74934;DHT22;63499;53.232;7.492;2023-04-26T11:02:44;10.00;99.90
74934;DHT22;63499;53.232;7.492;2023-04-26T11:05:31;10.40;99.90
74934;DHT22;63499;53.232;7.492;2023-04-26T11:13:31;11.60;99.90
74934;DHT22;63499;53.232;7.492;2023-04-26T11:16:02;11.80;99.90
74934;DHT22;63499;53.232;7.492;2023-04-26T11:18:29;11.90;99.90
74934;DHT22;63499;53.232;7.492;2023-04-26T11:20:55;11.80;99.90
74934;DHT22;63499;53.232;7.492;2023-04-26T11:23:22;11.50;99.90
74934;DHT22;63499;53.232;7.492;2023-04-26T11:25:49;11.10;99.90
74934;DHT22;63499;53.232;7.492;2023-04-26T11:28:17;10.90;99.90
74934;DHT22;63499;53.232;7.492;2023-04-26T11:30:43;10.90;99.90
74934;DHT22;63499;53.232;7.492;2023-04-26T11:33:19;11.10;99.90
74934;DHT22;63499;53.232;7.492;2023-04-26T11:35:48;11.50;99.90
74934;DHT22;63499;53.232;7.492;2023-04-26T11:38:14;11.70;99.90
74934;DHT22;63499;53.232;7.492;2023-04-26T11:40:43;11.70;99.90
74934;DHT22;63499;53.232;7.492;2023-04-26T11:43:09;11.60;99.90
74934;DHT22;63499;53.232;7.492;2023-04-26T11:45:36;11.40;99.90
74934;DHT22;63499;53.232;7.492;2023-04-26T11:48:04;11.70;99.90
74934;DHT22;63499;53.232;7.492;2023-04-26T11:50:30;11.50;99.90
74934;DHT22;63499;53.232;7.492;2023-04-26T11:52:58;11.50;99.90
74934;DHT22;63499;53.232;7.492;2023-04-26T11:55:28;11.70;99.90
74934;DHT22;63499;53.232;7.492;2023-04-26T11:57:56;11.50;99.90
74934;DHT22;63499;53.232;7.492;2023-04-26T12:00:23;11.40;99.90
74934;DHT22;63499;53.232;7.492;2023-04-26T12:02:50;11.60;99.90
74934;DHT22;63499;53.232;7.492;2023-04-26T12:05:24;11.50;99.90
74934;DHT22;63499;53.232;7.492;2023-04-26T12:07:51;11.40;99.90
74934;DHT22;63499;53.232;7.492;2023-04-26T12:10:18;11.40;99.90
74934;DHT22;63499;53.232;7.492;2023-04-26T12:12:48;11.50;99.90
74934;DHT22;63499;53.232;7.492;2023-04-26T12:15:21;11.60;99.90
74934;DHT22;63499;53.232;7.492;2023-04-26T12:17:54;11.40;99.90
74934;DHT22;63499;53.232;7.492;2023-04-26T12:20:27;11.30;99.90
74934;DHT22;63499;53.232;7.492;2023-04-26T12:23:03;11.40;99.90
74934;DHT22;63499;53.232;7.492;2023-04-26T12:25:31;11.40;99.90
74934;DHT22;63499;53.232;7.492;2023-04-26T12:27:57;11.30;99.90
74934;DHT22;63499;53.232;7.492;2023-04-26T12:30:24;11.40;99.90
74934;DHT22;63499;53.232;7.492;2023-04-26T12:33:00;11.30;99.90
74934;DHT22;63499;53.232;7.492;2023-04-26T12:35:26;11.10;99.90
74934;DHT22;63499;53.232;7.492;2023-04-26T12:37:52;10.90;99.90
74934;DHT22;63499;53.232;7.492;2023-04-26T12:40:20;10.80;99.90
74934;DHT22;63499;53.232;7.492;2023-04-26T12:42:47;10.60;99.90
74934;DHT22;63499;53.232;7.492;2023-04-26T12:45:13;10.40;99.90
74934;DHT22;63499;53.232;7.492;2023-04-26T12:47:39;10.20;99.90
74934;DHT22;63499;53.232;7.492;2023-04-26T12:50:06;10.20;99.90
74934;DHT22;63499;53.232;7.492;2023-04-26T12:52:32;10.10;99.90
74934;DHT22;63499;53.232;7.492;2023-04-26T12:54:58;10.00;99.90
74934;DHT22;63499;53.232;7.492;2023-04-26T12:57:25;10.00;99.90
74934;DHT22;63499;53.232;7.492;2023-04-26T12:59:51;10.00;99.90
74934;DHT22;63499;53.232;7.492;2023-04-26T13:02:17;10.10;99.90
74934;DHT22;63499;53.232;7.492;2023-04-26T13:04:43;10.00;99.90
74934;DHT22;63499;53.232;7.492;2023-04-26T13:07:09;9.90;99.90
74934;DHT22;63499;53.232;7.492;2023-04-26T13:09:35;10.00;99.90
74934;DHT22;63499;53.232;7.492;2023-04-26T13:12:01;9.90;99.90
74934;DHT22;63499;53.232;7.492;2023-04-26T13:14:28;9.80;99.90
74934;DHT22;63499;53.232;7.492;2023-04-26T13:16:55;9.70;99.90
74934;DHT22;63499;53.232;7.492;2023-04-26T13:19:21;9.60;99.90
74934;DHT22;63499;53.232;7.492;2023-04-26T13:21:47;9.50;99.90
74934;DHT22;63499;53.232;7.492;2023-04-26T13:24:13;9.60;99.90
74934;DHT22;63499;53.232;7.492;2023-04-26T13:26:39;9.70;99.90
74934;DHT22;63499;53.232;7.492;2023-04-26T13:29:05;9.80;99.90
74934;DHT22;63499;53.232;7.492;2023-04-26T13:31:31;9.80;99.90
74934;DHT22;63499;53.232;7.492;2023-04-26T13:33:57;9.80;99.90
74934;DHT22;63499;53.232;7.492;2023-04-26T13:36:23;10.00;99.90
74934;DHT22;63499;53.232;7.492;2023-04-26T13:38:50;10.20;99.90
74934;DHT22;63499;53.232;7.492;2023-04-26T13:41:16;10.40;99.90
74934;DHT22;63499;53.232;7.492;2023-04-26T13:43:42;11.10;99.90
74934;DHT22;63499;53.232;7.492;2023-04-26T13:46:08;11.40;99.90
74934;DHT22;63499;53.232;7.492;2023-04-26T13:48:35;11.60;99.90
74934;DHT22;63499;53.232;7.492;2023-04-26T13:51:01;11.90;99.90
74934;DHT22;63499;53.232;7.492;2023-04-26T13:53:27;12.50;99.90
74934;DHT22;63499;53.232;7.492;2023-04-26T13:55:53;12.30;99.90
74934;DHT22;63499;53.232;7.492;2023-04-26T13:58:19;12.30;99.90
74934;DHT22;63499;53.232;7.492;2023-04-26T14:00:45;12.20;99.90
74934;DHT22;63499;53.232;7.492;2023-04-26T14:03:11;12.00;99.90
74934;DHT22;63499;53.232;7.492;2023-04-26T14:05:40;11.70;99.90
74934;DHT22;63499;53.232;7.492;2023-04-26T14:08:07;11.40;99.90
74934;DHT22;63499;53.232;7.492;2023-04-26T14:10:33;11.20;99.90
74934;DHT22;63499;53.232;7.492;2023-04-26T14:12:59;11.20;99.90
74934;DHT22;63499;53.232;7.492;2023-04-26T14:15:25;11.40;99.90
74934;DHT22;63499;53.232;7.492;2023-04-26T14:17:51;11.50;99.90
74934;DHT22;63499;53.232;7.492;2023-04-26T14:20:17;11.50;99.90
74934;DHT22;63499;53.232;7.492;2023-04-26T14:22:43;11.60;99.90
74934;DHT22;63499;53.232;7.492;2023-04-26T14:25:10;12.00;99.90
74934;DHT22;63499;53.232;7.492;2023-04-26T14:27:36;12.40;99.90
74934;DHT22;63499;53.232;7.492;2023-04-26T14:30:02;12.80;99.90
74934;DHT22;63499;53.232;7.492;2023-04-26T14:32:28;13.30;99.90
74934;DHT22;63499;53.232;7.492;2023-04-26T14:34:56;13.60;99.90
74934;DHT22;63499;53.232;7.492;2023-04-26T14:37:22;13.70;99.90
74934;DHT22;63499;53.232;7.492;2023-04-26T14:39:49;13.80;99.90
74934;DHT22;63499;53.232;7.492;2023-04-26T14:42:16;13.40;99.90
74934;DHT22;63499;53.232;7.492;2023-04-26T14:44:42;12.80;99.90
74934;DHT22;63499;53.232;7.492;2023-04-26T14:47:08;12.60;99.90
74934;DHT22;63499;53.232;7.492;2023-04-26T14:49:34;12.60;99.90
74934;DHT22;63499;53.232;7.492;2023-04-26T14:52:00;12.40;99.90
74934;DHT22;63499;53.232;7.492;2023-04-26T14:54:26;12.20;99.90
74934;DHT22;63499;53.232;7.492;2023-04-26T14:56:52;12.00;99.90
74934;DHT22;63499;53.232;7.492;2023-04-26T14:59:18;11.70;99.90
74934;DHT22;63499;53.232;7.492;2023-04-26T15:01:44;11.50;99.90
74934;DHT22;63499;53.232;7.492;2023-04-26T15:04:10;11.40;99.90
74934;DHT22;63499;53.232;7.492;2023-04-26T15:06:36;11.20;99.90
74934;DHT22;63499;53.232;7.492;2023-04-26T15:09:02;11.10;99.90
74934;DHT22;63499;53.232;7.492;2023-04-26T15:11:31;11.00;99.90
74934;DHT22;63499;53.232;7.492;2023-04-26T15:13:58;11.00;99.90
74934;DHT22;63499;53.232;7.492;2023-04-26T15:16:24;11.00;99.90
74934;DHT22;63499;53.232;7.492;2023-04-26T15:18:50;10.90;99.90
74934;DHT22;63499;53.232;7.492;2023-04-26T15:21:16;10.90;99.90
74934;DHT22;63499;53.232;7.492;2023-04-26T15:23:42;10.90;99.90
74934;DHT22;63499;53.232;7.492;2023-04-26T15:26:08;10.80;99.90
74934;DHT22;63499;53.232;7.492;2023-04-26T15:28:34;10.70;99.90
74934;DHT22;63499;53.232;7.492;2023-04-26T15:31:04;10.70;99.90
74934;DHT22;63499;53.232;7.492;2023-04-26T15:33:30;10.60;99.90
